Time;durP1;ratioP1;P1;durP2;ratioP2;P2;SDS_P1;SDS_P2;PMS_P1;PMS_P2;Temp;Humidity;BMP_temperature;BMP_pressure;BME280_temperature;BME280_humidity;BME280_pressure;Samples;Min_cycle;Max_cycle;Signal;HPM_P1;HPM_P2
2022/09/30 00:00:47;;;;;;;7.13;4.95;;;;;;;4.21;99.95;97757.72;4187318;28;20523;-72
2022/09/30 00:02:47;;;;;;;5.65;4.72;;;;;;;4.06;100.00;97753.06;4186942;28;20084;-71
2022/09/30 00:04:48;;;;;;;7.55;5.53;;;;;;;3.93;100.00;97753.13;4186874;28;20473;-71
2022/09/30 00:06:50;;;;;;;7.03;4.97;;;;;;;3.93;100.00;97749.59;4187482;28;20120;-72
2022/09/30 00:08:52;;;;;;;9.98;5.47;;;;;;;3.93;100.00;97758.59;4186043;28;20059;-72
2022/09/30 00:11:20;;;;;;;6.90;4.97;;;;;;;3.87;100.00;97756.47;4186827;28;20311;-72
2022/09/30 00:13:21;;;;;;;7.63;4.85;;;;;;;3.94;100.00;97770.34;4183787;28;20080;-71
2022/09/30 00:15:21;;;;;;;7.40;5.60;;;;;;;3.98;100.00;97764.97;4186735;28;20500;-71
2022/09/30 00:17:21;;;;;;;7.88;5.28;;;;;;;3.97;100.00;97771.56;4186549;28;20049;-72
2022/09/30 00:19:22;;;;;;;10.10;5.60;;;;;;;3.98;100.00;97773.19;4186423;28;20044;-71
2022/09/30 00:21:23;;;;;;;6.30;4.88;;;;;;;4.00;100.00;97774.41;4186805;28;20569;-71
2022/09/30 00:23:23;;;;;;;7.43;5.28;;;;;;;4.05;100.00;97770.59;4187354;28;20041;-71
2022/09/30 00:25:24;;;;;;;7.55;5.18;;;;;;;4.03;100.00;97775.66;4186486;28;20361;-71
2022/09/30 00:27:24;;;;;;;7.43;5.05;;;;;;;4.02;100.00;97768.59;4186472;28;20508;-71
2022/09/30 00:29:24;;;;;;;7.28;4.85;;;;;;;3.98;100.00;97771.25;4186482;28;20430;-72
2022/09/30 00:31:30;;;;;;;7.28;5.20;;;;;;;3.92;100.00;97778.91;4186663;28;20060;-72
2022/09/30 00:33:30;;;;;;;6.70;4.97;;;;;;;3.89;100.00;97779.63;4186735;28;20040;-72
2022/09/30 00:35:31;;;;;;;7.25;4.55;;;;;;;3.82;100.00;97768.47;4186267;28;20370;-72
2022/09/30 00:37:31;;;;;;;6.88;4.55;;;;;;;3.84;100.00;97774.41;4186480;28;20127;-71
2022/09/30 00:39:31;;;;;;;6.35;4.38;;;;;;;3.84;100.00;97774.41;4185710;28;20055;-72
2022/09/30 00:41:32;;;;;;;8.05;4.07;;;;;;;3.82;100.00;97768.47;4186547;28;20047;-72
2022/09/30 00:43:52;;;;;;;5.88;3.83;;;;;;;3.82;100.00;97775.91;4186657;28;20063;-72
2022/09/30 00:45:56;;;;;;;5.55;4.07;;;;;;;3.82;100.00;97775.91;4186520;28;20434;-72
2022/09/30 00:48:28;;;;;;;4.97;3.67;;;;;;;3.72;100.00;97771.72;4186299;28;20434;-72
2022/09/30 00:50:44;;;;;;;6.03;4.20;;;;;;;3.62;100.00;97778.47;4185266;28;20072;-72
2022/09/30 00:53:16;;;;;;;5.30;3.88;;;;;;;3.49;100.00;97778.91;4186257;28;20051;-72
2022/09/30 00:55:38;;;;;;;6.15;3.90;;;;;;;3.45;100.00;97783.47;4167641;28;20052;-72
2022/09/30 00:57:39;;;;;;;5.95;3.97;;;;;;;3.46;100.00;97780.38;4186006;28;20044;-72
2022/09/30 00:59:46;;;;;;;7.88;4.03;;;;;;;3.32;100.00;97775.31;4186047;28;20049;-72
2022/09/30 01:01:48;;;;;;;5.45;4.25;;;;;;;3.27;100.00;97782.97;4186422;28;20398;-72
2022/09/30 01:03:56;;;;;;;6.97;4.07;;;;;;;3.17;100.00;97769.78;4186021;28;20049;-72
2022/09/30 01:05:56;;;;;;;5.70;4.10;;;;;;;3.09;100.00;97771.53;4185475;28;20055;-72
2022/09/30 01:07:59;;;;;;;5.47;4.15;;;;;;;3.05;100.00;97785.06;4184694;28;20056;-72
2022/09/30 01:10:00;;;;;;;4.95;3.72;;;;;;;3.06;100.00;97788.59;4185306;28;20044;-72
2022/09/30 01:12:12;;;;;;;6.68;3.78;;;;;;;3.03;100.00;97783.81;4186257;28;20147;-72
2022/09/30 01:14:22;;;;;;;5.53;3.60;;;;;;;3.12;100.00;97783.69;4185722;28;20062;-72
2022/09/30 01:16:39;;;;;;;9.00;3.97;;;;;;;3.11;100.00;97793.81;4185135;28;20037;-72
2022/09/30 01:19:25;;;;;;;6.32;4.43;;;;;;;3.08;100.00;97783.59;4185011;28;20041;-72
2022/09/30 01:21:45;;;;;;;4.68;3.63;;;;;;;3.14;100.00;97812.25;4184277;28;20040;-72
2022/09/30 01:23:48;;;;;;;5.55;4.00;;;;;;;3.14;100.00;97806.78;4184346;28;20062;-72
2022/09/30 01:26:01;;;;;;;5.28;3.97;;;;;;;3.12;100.00;97797.34;4185727;28;20044;-72
2022/09/30 01:28:04;;;;;;;;;;;;;;;3.10;100.00;97808.63;4186174;28;20136;-72
2022/09/30 01:30:12;;;;;;;4.57;3.50;;;;;;;3.07;100.00;97792.94;4185340;28;20006;-72
2022/09/30 01:32:28;;;;;;;5.70;4.35;;;;;;;3.14;100.00;97798.59;4186098;28;20397;-72
2022/09/30 01:34:37;;;;;;;5.20;3.72;;;;;;;3.18;100.00;97804.97;4185510;28;20047;-72
2022/09/30 01:36:46;;;;;;;6.75;4.25;;;;;;;3.26;100.00;97795.84;4185688;28;20428;-72
2022/09/30 01:38:47;;;;;;;5.43;3.80;;;;;;;3.31;100.00;97801.06;4184949;28;20072;-72
2022/09/30 01:40:53;;;;;;;6.32;4.40;;;;;;;3.38;100.00;97793.06;4185648;28;20500;-72
2022/09/30 01:43:18;;;;;;;9.23;4.65;;;;;;;3.26;100.00;97795.84;4185700;28;20446;-72
2022/09/30 01:45:31;;;;;;;6.90;4.47;;;;;;;3.21;100.00;97789.81;4185227;28;20052;-71
2022/09/30 01:47:39;;;;;;;5.93;4.00;;;;;;;3.18;100.00;97788.56;4185867;28;20044;-71
2022/09/30 01:50:01;;;;;;;6.35;4.38;;;;;;;3.11;100.00;97796.56;4185665;28;20043;-71
2022/09/30 01:52:14;;;;;;;5.57;4.20;;;;;;;3.05;100.00;97801.47;4184630;28;20074;-71
2022/09/30 01:54:28;;;;;;;5.20;3.80;;;;;;;3.03;100.00;97792.03;4185937;28;20518;-71
2022/09/30 01:56:37;;;;;;;5.53;3.70;;;;;;;2.90;100.00;97796.72;4185695;28;20150;-71
2022/09/30 01:58:40;;;;;;;4.65;3.58;;;;;;;2.72;100.00;97795.38;4185576;28;21048;-71
2022/09/30 02:00:43;;;;;;;7.10;4.15;;;;;;;2.72;100.00;97798.09;4185874;28;20044;-71
2022/09/30 02:03:02;;;;;;;;;;;;;;;2.76;100.00;97801.75;4188417;28;20049;-71
2022/09/30 02:05:09;;;;;;;4.25;3.30;;;;;;;2.71;100.00;97800.03;4188925;28;20274;-71
2022/09/30 02:07:16;;;;;;;7.03;3.92;;;;;;;2.72;100.00;97803.56;4189012;28;20037;-71
2022/09/30 02:09:23;;;;;;;5.53;3.92;;;;;;;2.72;100.00;97807.09;4188652;28;20053;-71
2022/09/30 02:11:27;;;;;;;5.45;3.83;;;;;;;2.77;100.00;97815.06;4189189;28;20050;-71
2022/09/30 02:13:44;;;;;;;6.80;4.40;;;;;;;2.72;100.00;97811.75;4188831;28;20048;-71
2022/09/30 02:15:54;;;;;;;6.53;3.60;;;;;;;2.55;100.00;97818.25;4188406;28;20048;-71
2022/09/30 02:18:01;;;;;;;4.13;3.42;;;;;;;2.39;100.00;97820.84;4189747;28;20045;-71
2022/09/30 02:20:07;;;;;;;7.00;4.03;;;;;;;2.30;100.00;97820.16;4188084;28;20059;-71
2022/09/30 02:22:17;;;;;;;7.15;4.80;;;;;;;2.37;100.00;97825.06;4188166;28;20066;-71
2022/09/30 02:24:21;;;;;;;8.45;4.70;;;;;;;2.35;100.00;97819.16;4188399;28;20285;-71
2022/09/30 02:26:25;;;;;;;8.48;3.90;;;;;;;2.39;100.00;97828.25;4189356;28;20049;-71
2022/09/30 02:28:29;;;;;;;5.70;4.15;;;;;;;2.42;100.00;97825.66;4188737;28;20068;-71
2022/09/30 02:30:32;;;;;;;5.57;3.70;;;;;;;2.45;100.00;97837.81;4188508;28;20039;-71
2022/09/30 02:32:42;;;;;;;6.30;4.15;;;;;;;2.40;100.00;97838.03;4188722;28;20496;-71
2022/09/30 02:34:55;;;;;;;5.07;3.60;;;;;;;2.37;100.00;97836.00;4188256;28;20134;-71
2022/09/30 02:37:07;;;;;;;4.68;3.50;;;;;;;2.40;100.00;97829.84;4187884;28;20487;-71
2022/09/30 02:39:20;;;;;;;6.25;3.78;;;;;;;2.42;100.00;97839.31;4187620;28;20045;-71
2022/09/30 02:41:25;;;;;;;;;;;;;;;2.39;100.00;97842.69;4180009;28;20114;-71
2022/09/30 02:43:26;;;;;;;6.13;4.43;;;;;;;2.22;100.00;97831.97;4188056;28;19916;-71
2022/09/30 02:45:30;;;;;;;9.55;4.55;;;;;;;2.13;100.00;97834.00;4188183;28;20121;-71
2022/09/30 02:47:35;;;;;;;6.45;4.35;;;;;;;2.10;100.00;97831.97;4186704;28;20119;-71
2022/09/30 02:49:46;;;;;;;9.93;4.38;;;;;;;2.11;100.00;97839.03;4187274;28;20052;-71
2022/09/30 02:51:59;;;;;;;8.95;4.78;;;;;;;2.03;100.00;97843.44;4188706;28;20044;-71
2022/09/30 02:53:59;;;;;;;5.72;4.25;;;;;;;2.03;100.00;97834.44;4188356;28;20032;-71
2022/09/30 02:56:11;;;;;;;7.88;4.68;;;;;;;1.95;100.00;97841.59;4188328;28;20047;-71
2022/09/30 02:58:19;;;;;;;6.40;4.25;;;;;;;1.89;100.00;97841.00;4187811;28;20127;-71
2022/09/30 03:00:20;;;;;;;5.95;4.32;;;;;;;1.88;100.00;97831.22;4188444;28;20675;-71
2022/09/30 03:02:20;;;;;;;4.88;3.65;;;;;;;1.88;100.00;97833.16;4188342;28;20044;-71
2022/09/30 03:04:25;;;;;;;5.38;4.10;;;;;;;1.90;100.00;97837.16;4187753;28;20079;-71
2022/09/30 03:06:26;;;;;;;7.00;4.00;;;;;;;1.87;100.00;97835.09;4188278;28;20376;-71
2022/09/30 03:08:26;;;;;;;4.45;3.67;;;;;;;1.85;100.00;97842.81;4187208;28;20040;-71
2022/09/30 03:10:29;;;;;;;4.72;4.00;;;;;;;1.82;100.00;97832.59;4188145;28;20123;-71
2022/09/30 03:12:34;;;;;;;8.60;4.45;;;;;;;1.92;100.00;97837.63;4187960;28;20036;-71
2022/09/30 03:14:42;;;;;;;7.68;4.25;;;;;;;2.00;100.00;97838.66;4188140;28;20458;-71
2022/09/30 03:16:55;;;;;;;5.10;3.83;;;;;;;2.02;100.00;97846.50;4187380;28;20044;-71
2022/09/30 03:19:27;;;;;;;5.68;3.95;;;;;;;1.97;100.00;97842.84;4171783;28;20053;-71
2022/09/30 03:21:47;;;;;;;4.28;3.55;;;;;;;1.98;100.00;97846.38;4187494;28;20115;-71
2022/09/30 03:23:57;;;;;;;7.05;4.00;;;;;;;2.03;100.00;97850.81;4187830;28;20190;-71
2022/09/30 03:26:24;;;;;;;7.53;4.20;;;;;;;1.99;100.00;97850.72;4187735;28;20049;-71
2022/09/30 03:28:33;;;;;;;4.57;3.42;;;;;;;1.91;100.00;97849.66;4186841;28;20124;-71
2022/09/30 03:30:40;;;;;;;4.68;3.45;;;;;;;1.83;99.93;97841.56;4186345;28;20040;-71
2022/09/30 03:33:25;;;;;;;4.20;3.22;;;;;;;1.73;100.00;97842.75;4187584;28;20346;-71
2022/09/30 03:35:42;;;;;;;5.25;3.25;;;;;;;1.63;100.00;97851.38;4135772;28;20573;-71
2022/09/30 03:38:09;;;;;;;6.03;3.85;;;;;;;1.59;100.00;97859.44;4170207;28;20481;-71
2022/09/30 03:40:24;;;;;;;9.57;3.70;;;;;;;1.61;100.00;97859.88;4186820;28;20487;-71
2022/09/30 03:42:33;;;;;;;5.85;3.63;;;;;;;1.58;100.00;97863.28;4187130;28;20044;-71
2022/09/30 03:44:56;;;;;;;5.30;3.33;;;;;;;1.50;100.00;97871.53;4187747;28;20048;-71
2022/09/30 03:47:01;;;;;;;4.65;3.30;;;;;;;1.46;100.00;97876.84;4186406;28;20109;-71
2022/09/30 03:49:06;;;;;;;3.63;3.10;;;;;;;1.50;100.00;97874.28;4186349;28;20124;-71
2022/09/30 03:51:08;;;;;;;8.80;3.80;;;;;;;1.46;100.00;97874.13;4187506;28;20486;-71
2022/09/30 03:53:11;;;;;;;5.22;3.53;;;;;;;1.43;100.00;97880.25;4187813;28;20055;-71
2022/09/30 03:55:12;;;;;;;4.38;3.53;;;;;;;1.38;100.00;97877.72;4187200;28;20389;-71
2022/09/30 03:57:12;;;;;;;4.07;2.97;;;;;;;1.35;100.00;97873.72;4187428;28;20051;-71
2022/09/30 03:59:21;;;;;;;5.53;3.55;;;;;;;1.44;100.00;97872.88;4186603;28;20139;-71
2022/09/30 04:01:22;;;;;;;4.07;3.33;;;;;;;1.46;100.00;97874.13;4187469;28;20469;-71
2022/09/30 04:03:26;;;;;;;4.93;3.40;;;;;;;1.49;100.00;97878.94;4186834;28;20048;-71
2022/09/30 04:05:27;;;;;;;5.43;3.17;;;;;;;1.50;100.00;97874.28;4186793;28;20121;-71
2022/09/30 04:07:27;;;;;;;4.70;3.17;;;;;;;1.45;100.00;97872.53;4187315;28;20223;-71
2022/09/30 04:09:27;;;;;;;7.57;3.25;;;;;;;1.41;100.00;97882.50;4186356;28;20052;-71
2022/09/30 04:11:27;;;;;;;4.20;3.53;;;;;;;1.36;100.00;97883.50;4187046;28;20400;-71
2022/09/30 04:13:28;;;;;;;4.47;3.53;;;;;;;1.39;100.00;97890.19;4187254;28;20048;-71
2022/09/30 04:15:28;;;;;;;5.55;3.45;;;;;;;1.45;100.00;97891.59;4186642;28;20047;-71
2022/09/30 04:17:28;;;;;;;5.00;2.95;;;;;;;1.46;100.00;97895.13;4186605;28;20488;-72
2022/09/30 04:19:29;;;;;;;5.60;3.38;;;;;;;1.34;100.00;97893.16;4186326;28;20508;-71
2022/09/30 04:21:29;;;;;;;4.75;3.50;;;;;;;1.25;100.00;97903.31;4186804;28;20075;-71
2022/09/30 04:23:32;;;;;;;6.63;4.55;;;;;;;1.19;100.00;97896.44;4186876;28;20067;-71
2022/09/30 04:25:32;;;;;;;;;;;;;;;1.13;100.00;97895.84;4186735;28;20196;-71
2022/09/30 04:27:32;;;;;;;4.70;3.50;;;;;;;0.97;100.00;97900.25;4186839;28;19985;-71
2022/09/30 04:29:33;;;;;;;7.28;3.90;;;;;;;0.97;100.00;97902.97;4186184;28;20123;-71
2022/09/30 04:31:33;;;;;;;7.28;3.40;;;;;;;0.96;100.00;97896.75;4186716;28;20408;-71
2022/09/30 04:33:34;;;;;;;5.70;3.60;;;;;;;1.07;100.00;97900.66;4186610;28;20443;-71
2022/09/30 04:35:36;;;;;;;4.45;3.10;;;;;;;1.12;100.00;97899.69;4186748;28;20634;-71
2022/09/30 04:37:40;;;;;;;6.22;3.67;;;;;;;1.16;100.00;97897.09;4186541;28;20404;-71
2022/09/30 04:39:41;;;;;;;6.30;3.50;;;;;;;1.10;100.00;97899.22;4185593;28;20044;-71
2022/09/30 04:41:41;;;;;;;5.78;3.40;;;;;;;1.07;100.00;97908.84;4186853;28;20040;-71
2022/09/30 04:43:46;;;;;;;4.80;3.15;;;;;;;1.11;100.00;97901.63;4186809;28;20041;-71
2022/09/30 04:45:47;;;;;;;5.05;3.55;;;;;;;1.15;100.00;97900.94;4185726;28;20036;-71
2022/09/30 04:47:48;;;;;;;7.68;3.45;;;;;;;1.04;100.00;97904.06;4186021;28;20048;-71
2022/09/30 04:49:48;;;;;;;6.60;4.13;;;;;;;0.90;100.00;97905.41;4185164;28;20128;-71
2022/09/30 04:51:48;;;;;;;6.88;3.92;;;;;;;0.80;100.00;97907.38;4186860;28;20044;-71
2022/09/30 04:53:49;;;;;;;6.38;3.45;;;;;;;0.83;100.00;97909.47;4186133;28;20147;-71
2022/09/30 04:55:49;;;;;;;7.05;3.70;;;;;;;0.89;100.00;97909.28;4186290;28;20044;-71
2022/09/30 04:57:50;;;;;;;12.18;4.53;;;;;;;0.91;100.00;97916.00;4186377;28;20059;-71
2022/09/30 04:59:50;;;;;;;6.00;3.33;;;;;;;0.81;100.00;97911.72;4185336;28;20110;-71
2022/09/30 05:01:51;;;;;;;4.93;3.65;;;;;;;0.71;100.00;97914.00;4186098;28;20056;-71
2022/09/30 05:03:53;;;;;;;6.65;3.83;;;;;;;0.64;100.00;97911.00;4186752;28;20048;-71
2022/09/30 05:05:53;;;;;;;5.18;3.58;;;;;;;0.65;100.00;97910.66;4186527;28;20045;-71
2022/09/30 05:08:04;;;;;;;10.10;4.45;;;;;;;0.69;100.00;97910.81;4185969;28;20163;-71
2022/09/30 05:10:06;;;;;;;7.07;4.38;;;;;;;0.66;100.00;97917.69;4185164;28;20135;-71
2022/09/30 05:12:07;;;;;;;6.07;4.40;;;;;;;0.63;100.00;97915.63;4186289;28;20051;-71
2022/09/30 05:14:10;;;;;;;6.55;4.45;;;;;;;0.62;100.00;97914.03;4185818;28;20293;-71
2022/09/30 05:16:11;;;;;;;5.18;3.92;;;;;;;0.51;100.00;97915.53;4186460;28;20028;-71
2022/09/30 05:18:11;;;;;;;7.22;4.25;;;;;;;0.36;100.00;97922.31;4185638;28;20523;-71
2022/09/30 05:20:11;;;;;;;5.28;3.45;;;;;;;0.29;100.00;97924.72;4185458;28;20143;-71
2022/09/30 05:22:13;;;;;;;6.15;3.80;;;;;;;0.26;100.00;97923.44;4186456;28;20067;-71
2022/09/30 05:24:13;;;;;;;7.22;4.22;;;;;;;0.32;100.00;97937.66;4186321;28;20450;-71
2022/09/30 05:26:13;;;;;;;6.43;4.22;;;;;;;0.41;100.00;97933.00;4186278;28;20429;-71
2022/09/30 05:28:14;;;;;;;6.50;4.43;;;;;;;0.49;100.00;97934.09;4185679;28;20175;-71
2022/09/30 05:30:14;;;;;;;5.43;4.10;;;;;;;0.56;100.00;97940.63;4185617;28;20089;-71
2022/09/30 05:32:16;;;;;;;8.27;4.38;;;;;;;0.54;100.00;97937.44;4185996;28;20426;-71
2022/09/30 05:34:16;;;;;;;7.40;4.18;;;;;;;0.54;100.00;97937.44;4185967;28;20438;-70
2022/09/30 05:36:17;;;;;;;8.73;4.13;;;;;;;0.59;100.00;97941.13;4184592;28;20304;-71
2022/09/30 05:38:17;;;;;;;5.18;3.85;;;;;;;0.65;100.00;97946.06;4185756;28;20309;-71
2022/09/30 05:40:17;;;;;;;7.05;4.03;;;;;;;0.68;100.00;97944.63;4185227;28;20071;-71
2022/09/30 05:42:18;;;;;;;6.72;3.58;;;;;;;0.65;100.00;97950.69;4186128;28;20037;-71
2022/09/30 05:44:18;;;;;;;4.90;3.72;;;;;;;0.62;100.00;97948.63;4185988;28;20036;-71
2022/09/30 05:46:18;;;;;;;6.07;4.38;;;;;;;0.63;100.00;97958.41;4185911;28;20036;-71
2022/09/30 05:48:19;;;;;;;6.60;3.70;;;;;;;0.60;100.00;97957.13;4185230;28;20060;-71
2022/09/30 05:50:21;;;;;;;9.40;4.45;;;;;;;0.61;100.00;97963.38;4185110;28;20028;-71
2022/09/30 05:52:21;;;;;;;7.50;4.10;;;;;;;0.61;100.00;97971.53;4184672;28;20460;-71
2022/09/30 05:54:21;;;;;;;9.95;4.43;;;;;;;0.57;100.00;97963.22;4185953;28;20057;-71
2022/09/30 05:56:21;;;;;;;7.07;4.18;;;;;;;0.59;100.00;97981.97;4185090;28;20337;-71
2022/09/30 05:58:22;;;;;;;8.30;4.47;;;;;;;0.62;100.00;97979.38;4184490;28;20036;-71
2022/09/30 06:00:23;;;;;;;8.52;4.60;;;;;;;0.55;100.00;97988.03;4186083;28;20051;-71
2022/09/30 06:02:23;;;;;;;7.53;5.22;;;;;;;0.52;100.00;97990.63;4185948;28;20050;-71
2022/09/30 06:04:24;;;;;;;8.48;4.72;;;;;;;0.53;100.00;97995.75;4185573;28;20128;-71
2022/09/30 06:06:25;;;;;;;7.35;4.22;;;;;;;0.52;100.00;97993.34;4186097;28;20044;-70
2022/09/30 06:08:25;;;;;;;6.88;4.57;;;;;;;0.51;100.00;97987.09;4185004;28;20135;-71
2022/09/30 06:10:25;;;;;;;5.78;4.22;;;;;;;0.56;100.00;97986.91;4185615;28;20131;-71
2022/09/30 06:12:27;;;;;;;7.55;4.75;;;;;;;0.59;100.00;97992.84;4185676;28;20063;-71
2022/09/30 06:14:27;;;;;;;9.13;4.85;;;;;;;0.60;100.00;98000.69;4185298;28;20044;-71
2022/09/30 06:16:28;;;;;;;7.60;5.25;;;;;;;0.64;100.00;97998.09;4184953;28;20546;-71
2022/09/30 06:18:29;;;;;;;8.98;5.20;;;;;;;0.66;100.00;98006.75;4185542;28;20082;-71
2022/09/30 06:20:30;;;;;;;9.33;5.80;;;;;;;0.71;100.00;98014.75;4185524;28;20055;-71
2022/09/30 06:22:34;;;;;;;8.40;5.00;;;;;;;0.75;100.00;98015.72;4185842;28;20033;-71
2022/09/30 06:24:35;;;;;;;9.40;5.68;;;;;;;0.82;100.00;98014.06;4185451;28;20350;-71
2022/09/30 06:26:35;;;;;;;11.23;5.82;;;;;;;0.93;100.00;98013.72;4185785;28;20041;-71
2022/09/30 06:28:36;;;;;;;8.48;5.93;;;;;;;1.02;100.00;98012.56;4182901;28;20123;-71
2022/09/30 06:30:36;;;;;;;8.50;5.93;;;;;;;1.04;100.00;98004.84;4185061;28;20098;-70
2022/09/30 06:32:37;;;;;;;9.52;5.97;;;;;;;1.19;100.00;98017.16;4186063;28;20120;-71
2022/09/30 06:34:37;;;;;;;10.35;6.13;;;;;;;1.36;100.00;98022.50;4185284;28;20450;-71
2022/09/30 06:36:37;;;;;;;8.23;6.05;;;;;;;1.45;100.00;98022.47;4185136;28;20053;-71
2022/09/30 06:38:38;;;;;;;10.02;6.43;;;;;;;1.51;100.00;98037.50;4185197;28;20146;-71
2022/09/30 06:40:39;;;;;;;10.27;6.75;;;;;;;1.56;100.00;98037.31;4185343;28;20045;-71
2022/09/30 06:42:39;;;;;;;9.48;6.47;;;;;;;1.65;100.00;98045.44;4185266;28;20048;-71
2022/09/30 06:44:39;;;;;;;8.73;6.38;;;;;;;1.68;100.00;98039.34;4185316;28;20055;-71
2022/09/30 06:46:39;;;;;;;11.30;7.57;;;;;;;1.77;100.00;98048.25;4185499;28;20471;-71
2022/09/30 06:48:40;;;;;;;16.45;7.82;;;;;;;1.84;100.00;98045.03;4186627;28;20097;-71
2022/09/30 06:50:40;;;;;;;12.43;7.78;;;;;;;1.90;100.00;98047.22;4187482;28;20346;-71
2022/09/30 06:52:41;;;;;;;13.25;9.48;;;;;;;1.98;100.00;98045.53;4188494;28;20049;-71
2022/09/30 06:54:42;;;;;;;11.10;8.43;;;;;;;2.03;100.00;98048.09;4187752;28;20044;-71
2022/09/30 06:56:42;;;;;;;13.30;10.50;;;;;;;2.12;100.00;98046.09;4187618;28;20085;-71
2022/09/30 06:58:44;;;;;;;16.98;12.00;;;;;;;2.17;100.00;98066.94;4187873;28;20091;-71
2022/09/30 07:00:44;;;;;;;14.73;10.80;;;;;;;2.25;100.00;98063.34;4188284;28;20047;-71
2022/09/30 07:02:44;;;;;;;14.82;12.50;;;;;;;2.29;100.00;98063.47;4188251;28;20071;-71
2022/09/30 07:04:45;;;;;;;17.05;12.98;;;;;;;2.39;100.00;98063.06;4187435;28;20206;-71
2022/09/30 07:06:45;;;;;;;16.67;10.45;;;;;;;2.48;100.00;98064.59;4188297;28;20040;-71
2022/09/30 07:08:46;;;;;;;12.52;8.75;;;;;;;2.57;100.00;98061.00;4187513;28;20950;-71
2022/09/30 07:10:46;;;;;;;11.25;8.45;;;;;;;2.62;100.00;98064.28;4187797;28;20540;-71
2022/09/30 07:12:53;;;;;;;10.98;8.10;;;;;;;2.78;100.00;98065.25;4188606;28;20139;-71
2022/09/30 07:14:54;;;;;;;10.95;7.15;;;;;;;2.87;100.00;98065.16;4188085;28;20135;-71
2022/09/30 07:16:55;;;;;;;8.88;6.60;;;;;;;2.96;100.00;98076.81;4187728;28;20045;-71
2022/09/30 07:18:56;;;;;;;10.57;7.22;;;;;;;3.01;100.00;98079.34;4187230;28;20098;-71
2022/09/30 07:20:56;;;;;;;8.65;6.22;;;;;;;3.07;100.00;98074.47;4188105;28;20044;-71
2022/09/30 07:22:57;;;;;;;7.75;5.93;;;;;;;3.13;100.00;98078.56;4187805;28;20370;-71
2022/09/30 07:25:00;;;;;;;8.48;5.10;;;;;;;3.28;100.00;98083.38;4187721;28;20552;-71
2022/09/30 07:27:00;;;;;;;7.20;5.22;;;;;;;3.38;100.00;98082.91;4187153;28;20215;-71
2022/09/30 07:29:01;;;;;;;12.20;6.43;;;;;;;3.59;100.00;98082.03;4187225;28;20613;-71
2022/09/30 07:31:10;;;;;;;7.20;5.05;;;;;;;3.71;100.00;98082.03;4187803;28;20055;-71
2022/09/30 07:33:15;;;;;;;7.85;5.57;;;;;;;3.86;100.00;98075.88;4188071;28;20127;-71
2022/09/30 07:35:15;;;;;;;6.20;4.95;;;;;;;3.93;100.00;98083.50;4187818;28;20052;-71
2022/09/30 07:37:17;;;;;;;8.77;5.25;;;;;;;4.02;100.00;98091.59;4186371;28;20060;-71
2022/09/30 07:39:19;;;;;;;6.75;4.82;;;;;;;4.06;100.00;98090.56;4186520;28;20088;-71
2022/09/30 07:41:26;;;;;;;9.88;5.55;;;;;;;4.18;100.00;98084.28;4187891;28;20083;-71
2022/09/30 07:43:37;;;;;;;7.07;4.82;;;;;;;4.33;100.00;98083.56;4187679;28;20071;-71
2022/09/30 07:45:38;;;;;;;7.47;4.97;;;;;;;4.45;100.00;98086.25;4187063;28;20098;-71
2022/09/30 07:47:38;;;;;;;8.15;5.05;;;;;;;4.51;100.00;98090.34;4187543;28;20106;-71
2022/09/30 07:49:38;;;;;;;6.93;4.95;;;;;;;4.65;100.00;98089.16;4186594;28;20040;-71
2022/09/30 07:51:42;;;;;;;12.15;5.45;;;;;;;4.73;100.00;98096.44;4187288;28;20045;-71
2022/09/30 07:53:45;;;;;;;7.85;5.50;;;;;;;4.79;100.00;98095.03;4187169;28;20044;-71
2022/09/30 07:55:45;;;;;;;9.32;4.65;;;;;;;4.84;100.00;98092.03;4187070;28;20356;-71
2022/09/30 07:57:47;;;;;;;6.70;4.75;;;;;;;4.82;100.00;98097.09;4187259;28;20369;-71
2022/09/30 07:59:47;;;;;;;5.75;4.70;;;;;;;4.86;100.00;98097.97;4186476;28;20190;-71
2022/09/30 08:01:49;;;;;;;9.85;5.35;;;;;;;4.90;100.00;98098.09;4186934;28;20357;-71
2022/09/30 08:03:56;;;;;;;8.80;5.00;;;;;;;4.98;100.00;98095.19;4187677;28;20489;-71
2022/09/30 08:06:03;;;;;;;7.82;4.30;;;;;;;5.04;100.00;98103.94;4187354;28;20159;-71
2022/09/30 08:08:05;;;;;;;5.95;4.75;;;;;;;5.13;100.00;98101.03;4187102;28;20500;-72
2022/09/30 08:10:06;;;;;;;5.53;4.53;;;;;;;5.19;100.00;98094.16;4185894;28;20358;-71
2022/09/30 08:12:07;;;;;;;7.28;4.40;;;;;;;5.24;100.00;98094.69;4186001;28;20041;-72
2022/09/30 08:14:13;;;;;;;5.47;4.38;;;;;;;5.26;100.00;98097.88;4186952;28;20504;-72
2022/09/30 08:16:13;;;;;;;5.88;4.65;;;;;;;5.33;100.00;98100.81;4187770;28;20039;-72
2022/09/30 08:18:13;;;;;;;5.90;4.70;;;;;;;5.38;100.00;98102.50;4187043;28;20401;-71
2022/09/30 08:20:14;;;;;;;7.90;4.82;;;;;;;5.47;100.00;98096.84;4186933;28;20037;-72
2022/09/30 08:22:15;;;;;;;5.90;4.55;;;;;;;5.54;100.00;98105.22;4186737;28;20119;-71
2022/09/30 08:24:15;;;;;;;7.57;5.40;;;;;;;5.65;100.00;98103.56;4186954;28;20028;-71
2022/09/30 08:26:16;;;;;;;5.63;3.90;;;;;;;5.75;98.92;98113.22;4186867;28;20343;-71
2022/09/30 08:28:17;;;;;;;7.93;5.18;;;;;;;5.83;98.59;98109.50;4186684;28;20063;-71
2022/09/30 08:30:18;;;;;;;6.13;4.95;;;;;;;5.93;100.00;98111.72;4186417;28;20199;-71
2022/09/30 08:32:18;;;;;;;10.95;5.90;;;;;;;6.05;100.00;98114.38;4186592;28;20071;-71
2022/09/30 08:34:19;;;;;;;8.50;6.35;;;;;;;6.18;100.00;98109.56;4187198;28;20078;-71
2022/09/30 08:36:21;;;;;;;7.82;5.80;;;;;;;6.23;100.00;98109.28;4186784;28;20024;-71
2022/09/30 08:38:22;;;;;;;7.72;5.57;;;;;;;6.29;100.00;98104.28;4185883;28;20087;-71
2022/09/30 08:40:25;;;;;;;7.28;4.40;;;;;;;6.35;100.00;98108.34;4186582;28;20125;-72
2022/09/30 08:42:56;;;;;;;16.05;6.90;;;;;;;6.39;100.00;98101.81;4186189;28;20494;-71
2022/09/30 08:45:14;;;;;;;6.05;4.78;;;;;;;6.43;99.55;98107.38;4186862;28;20044;-71
2022/09/30 08:47:33;;;;;;;6.25;4.55;;;;;;;6.55;97.56;98107.25;4186708;28;20424;-71
2022/09/30 08:49:46;;;;;;;6.88;5.00;;;;;;;6.69;98.17;98104.78;4185540;28;20556;-71
2022/09/30 08:51:48;;;;;;;7.43;4.60;;;;;;;6.75;96.85;98108.03;4185873;28;20126;-71
2022/09/30 08:53:49;;;;;;;7.95;4.32;;;;;;;6.85;96.84;98106.66;4186044;28;20057;-71
2022/09/30 08:55:53;;;;;;;5.53;4.47;;;;;;;6.92;95.60;98113.09;4186769;28;20051;-71
2022/09/30 08:57:55;;;;;;;6.07;4.57;;;;;;;7.00;96.71;98122.28;4186548;28;20045;-71
2022/09/30 09:00:00;;;;;;;6.45;4.22;;;;;;;7.07;96.36;98121.66;4185794;28;20241;-71
2022/09/30 09:02:31;;;;;;;6.78;4.18;;;;;;;7.18;96.42;98123.44;4186024;28;20080;-71
2022/09/30 09:04:32;;;;;;;7.00;4.90;;;;;;;7.30;98.35;98128.00;4146218;28;20476;-71
2022/09/30 09:06:45;;;;;;;12.50;5.57;;;;;;;7.38;95.16;98115.16;4186681;28;20040;-71
2022/09/30 09:08:54;;;;;;;7.47;4.43;;;;;;;7.44;96.00;98122.72;4185286;28;20594;-71
2022/09/30 09:11:29;;;;;;;7.00;4.43;;;;;;;7.47;93.84;98124.75;4185844;28;20041;-71
2022/09/30 09:13:48;;;;;;;7.45;5.15;;;;;;;7.54;96.14;98132.38;4185711;28;20091;-71
2022/09/30 09:15:51;;;;;;;10.05;5.68;;;;;;;7.58;96.62;98122.19;4185902;28;20464;-71
2022/09/30 09:18:10;;;;;;;7.68;4.85;;;;;;;7.65;95.75;98122.31;4186233;28;20652;-71
2022/09/30 09:20:17;;;;;;;8.52;5.00;;;;;;;7.66;94.35;98121.16;4185364;28;20498;-72
2022/09/30 09:22:17;;;;;;;9.43;4.88;;;;;;;7.70;94.23;98126.75;4185588;28;20028;-72
2022/09/30 09:24:24;;;;;;;5.70;4.75;;;;;;;7.74;94.63;98117.34;4186058;28;20111;-71
2022/09/30 09:26:27;;;;;;;8.80;5.13;;;;;;;7.83;94.34;98117.91;4186514;28;20106;-72
2022/09/30 09:28:38;;;;;;;9.40;5.32;;;;;;;7.94;93.16;98114.50;4185550;28;20123;-72
2022/09/30 09:30:48;;;;;;;9.93;5.75;;;;;;;7.99;93.75;98115.00;4186245;28;20040;-72
2022/09/30 09:32:54;;;;;;;7.63;6.07;;;;;;;8.09;93.69;98117.13;4185639;28;20045;-72
2022/09/30 09:35:05;;;;;;;7.78;5.95;;;;;;;8.19;93.45;98123.97;4184944;28;20052;-71
2022/09/30 09:40:17;;;;;;;11.35;6.28;;;;;;;8.53;89.01;98118.59;4185124;28;20055;-71
2022/09/30 09:42:23;;;;;;;6.88;5.15;;;;;;;8.55;88.19;98117.06;4184623;28;20041;-71
2022/09/30 09:44:52;;;;;;;8.57;5.68;;;;;;;8.60;89.33;98108.44;4185403;28;20506;-72
2022/09/30 09:47:03;;;;;;;7.85;5.68;;;;;;;8.63;89.23;98109.66;4184222;28;20060;-72
2022/09/30 09:49:15;;;;;;;7.63;6.13;;;;;;;8.69;86.96;98113.69;4184994;28;20049;-72
2022/09/30 09:51:27;;;;;;;8.10;6.27;;;;;;;8.71;85.96;98120.41;4185910;28;20086;-72
2022/09/30 09:53:44;;;;;;;9.27;5.47;;;;;;;8.80;84.80;98105.56;4186413;28;20274;-72